sensor_id;sensor_type;location;lat;lon;timestamp;pressure;altitude;pressure_sealevel;temperature;humidity
72086;BME280;64750;52.134;5.424;2023-05-20T00:00:31;102701.72;;;14.02;59.88
72086;BME280;64750;52.134;5.424;2023-05-20T00:02:57;102700.06;;;14.00;59.89
72086;BME280;64750;52.134;5.424;2023-05-20T00:05:26;102703.78;;;13.95;59.94
72086;BME280;64750;52.134;5.424;2023-05-20T00:07:52;102702.34;;;13.88;60.22
72086;BME280;64750;52.134;5.424;2023-05-20T00:10:19;102700.72;;;13.86;60.37
72086;BME280;64750;52.134;5.424;2023-05-20T00:12:45;102700.91;;;13.81;60.41
72086;BME280;64750;52.134;5.424;2023-05-20T00:15:11;102693.03;;;13.80;60.60
72086;BME280;64750;52.134;5.424;2023-05-20T00:17:38;102696.63;;;13.78;60.65
72086;BME280;64750;52.134;5.424;2023-05-20T00:20:05;102698.44;;;13.76;60.61
72086;BME280;64750;52.134;5.424;2023-05-20T00:22:32;102707.31;;;13.75;60.70
72086;BME280;64750;52.134;5.424;2023-05-20T00:24:58;102708.31;;;13.73;61.03
72086;BME280;64750;52.134;5.424;2023-05-20T00:27:25;102708.59;;;13.67;60.82
72086;BME280;64750;52.134;5.424;2023-05-20T00:29:51;102713.00;;;13.66;61.04
72086;BME280;64750;52.134;5.424;2023-05-20T00:32:18;102710.22;;;13.69;60.97
72086;BME280;64750;52.134;5.424;2023-05-20T00:34:54;102704.06;;;13.69;60.92
72086;BME280;64750;52.134;5.424;2023-05-20T00:37:21;102704.94;;;13.69;61.03
72086;BME280;64750;52.134;5.424;2023-05-20T00:39:48;102702.41;;;13.66;61.06
72086;BME280;64750;52.134;5.424;2023-05-20T00:42:24;102694.75;;;13.60;61.14
72086;BME280;64750;52.134;5.424;2023-05-20T00:44:51;102701.00;;;13.59;61.46
72086;BME280;64750;52.134;5.424;2023-05-20T00:47:19;102701.09;;;13.56;61.47
72086;BME280;64750;52.134;5.424;2023-05-20T00:49:48;102698.47;;;13.56;61.38
72086;BME280;64750;52.134;5.424;2023-05-20T00:52:17;102700.25;;;13.55;61.61
72086;BME280;64750;52.134;5.424;2023-05-20T00:54:44;102691.59;;;13.52;61.60
72086;BME280;64750;52.134;5.424;2023-05-20T00:57:11;102692.53;;;13.51;61.99
72086;BME280;64750;52.134;5.424;2023-05-20T00:59:37;102696.94;;;13.50;62.00
72086;BME280;64750;52.134;5.424;2023-05-20T01:02:05;102692.66;;;13.48;61.98
72086;BME280;64750;52.134;5.424;2023-05-20T01:04:32;102679.38;;;13.49;62.03
72086;BME280;64750;52.134;5.424;2023-05-20T01:07:02;102691.94;;;13.44;62.12
72086;BME280;64750;52.134;5.424;2023-05-20T01:09:30;102683.94;;;13.45;62.05
72086;BME280;64750;52.134;5.424;2023-05-20T01:12:05;102688.22;;;13.48;62.07
72086;BME280;64750;52.134;5.424;2023-05-20T01:14:38;102683.81;;;13.49;62.30
72086;BME280;64750;52.134;5.424;2023-05-20T01:17:08;102686.38;;;13.50;62.25
72086;BME280;64750;52.134;5.424;2023-05-20T01:19:40;102672.38;;;13.48;62.30
72086;BME280;64750;52.134;5.424;2023-05-20T01:22:11;102671.59;;;13.46;62.29
72086;BME280;64750;52.134;5.424;2023-05-20T01:24:47;102679.84;;;13.38;62.41
72086;BME280;64750;52.134;5.424;2023-05-20T01:27:14;102672.84;;;13.37;62.47
72086;BME280;64750;52.134;5.424;2023-05-20T01:29:41;102670.22;;;13.37;62.51
72086;BME280;64750;52.134;5.424;2023-05-20T01:32:22;102674.66;;;13.35;62.63
72086;BME280;64750;52.134;5.424;2023-05-20T01:34:51;102664.09;;;13.35;62.63
72086;BME280;64750;52.134;5.424;2023-05-20T01:37:19;102670.25;;;13.36;62.71
72086;BME280;64750;52.134;5.424;2023-05-20T01:39:48;102658.94;;;13.32;62.64
72086;BME280;64750;52.134;5.424;2023-05-20T01:42:16;102655.56;;;13.28;63.11
72086;BME280;64750;52.134;5.424;2023-05-20T01:44:42;102662.69;;;13.26;62.80
72086;BME280;64750;52.134;5.424;2023-05-20T01:47:09;102656.72;;;13.23;63.15
72086;BME280;64750;52.134;5.424;2023-05-20T01:49:35;102649.72;;;13.22;63.19
72086;BME280;64750;52.134;5.424;2023-05-20T01:52:03;102653.25;;;13.21;63.25
72086;BME280;64750;52.134;5.424;2023-05-20T01:54:30;102656.72;;;13.23;63.01
72086;BME280;64750;52.134;5.424;2023-05-20T01:56:56;102655.09;;;13.19;63.34
72086;BME280;64750;52.134;5.424;2023-05-20T01:59:22;102653.53;;;13.15;63.42
72086;BME280;64750;52.134;5.424;2023-05-20T02:01:49;102657.88;;;13.16;63.45
72086;BME280;64750;52.134;5.424;2023-05-20T02:04:15;102657.06;;;13.13;63.47
72086;BME280;64750;52.134;5.424;2023-05-20T02:06:44;102651.03;;;13.11;63.56
72086;BME280;64750;52.134;5.424;2023-05-20T02:09:11;102652.72;;;13.12;63.69
72086;BME280;64750;52.134;5.424;2023-05-20T02:11:39;102649.22;;;13.12;63.52
72086;BME280;64750;52.134;5.424;2023-05-20T02:14:06;102655.34;;;13.12;63.63
72086;BME280;64750;52.134;5.424;2023-05-20T02:16:32;102655.34;;;13.12;63.52
72086;BME280;64750;52.134;5.424;2023-05-20T02:18:59;102645.84;;;13.08;63.82
72086;BME280;64750;52.134;5.424;2023-05-20T02:21:27;102653.00;;;13.06;63.83
72086;BME280;64750;52.134;5.424;2023-05-20T02:23:53;102662.75;;;13.04;63.96
72086;BME280;64750;52.134;5.424;2023-05-20T02:26:20;102658.31;;;13.05;63.99
72086;BME280;64750;52.134;5.424;2023-05-20T02:28:47;102657.47;;;13.04;64.08
72086;BME280;64750;52.134;5.424;2023-05-20T02:31:16;102657.72;;;12.98;64.23
72086;BME280;64750;52.134;5.424;2023-05-20T02:33:43;102649.63;;;13.03;64.15
72086;BME280;64750;52.134;5.424;2023-05-20T02:36:10;102659.44;;;12.99;64.09
72086;BME280;64750;52.134;5.424;2023-05-20T02:38:37;102652.56;;;12.95;64.22
72086;BME280;64750;52.134;5.424;2023-05-20T02:41:03;102642.09;;;12.93;64.20
72086;BME280;64750;52.134;5.424;2023-05-20T02:43:31;102642.03;;;12.95;64.25
72086;BME280;64750;52.134;5.424;2023-05-20T02:45:57;102643.84;;;12.93;64.36
72086;BME280;64750;52.134;5.424;2023-05-20T02:48:24;102637.91;;;12.88;64.55
72086;BME280;64750;52.134;5.424;2023-05-20T02:50:51;102634.50;;;12.86;64.69
72086;BME280;64750;52.134;5.424;2023-05-20T02:53:18;102628.47;;;12.82;64.76
72086;BME280;64750;52.134;5.424;2023-05-20T02:55:45;102630.06;;;12.86;64.73
72086;BME280;64750;52.134;5.424;2023-05-20T02:58:13;102636.16;;;12.88;64.71
72086;BME280;64750;52.134;5.424;2023-05-20T03:00:40;102634.72;;;12.79;64.70
72086;BME280;64750;52.134;5.424;2023-05-20T03:03:07;102632.34;;;12.73;65.02
72086;BME280;64750;52.134;5.424;2023-05-20T03:05:36;102636.75;;;12.73;65.17
72086;BME280;64750;52.134;5.424;2023-05-20T03:08:08;102641.91;;;12.76;65.24
72086;BME280;64750;52.134;5.424;2023-05-20T03:10:36;102635.09;;;12.70;65.42
72086;BME280;64750;52.134;5.424;2023-05-20T03:13:04;102644.84;;;12.68;65.58
72086;BME280;64750;52.134;5.424;2023-05-20T03:15:34;102631.44;;;12.74;65.40
72086;BME280;64750;52.134;5.424;2023-05-20T03:18:04;102641.31;;;12.69;65.41
72086;BME280;64750;52.134;5.424;2023-05-20T03:20:30;102643.13;;;12.67;65.40
72086;BME280;64750;52.134;5.424;2023-05-20T03:23:02;102643.28;;;12.64;65.64
72086;BME280;64750;52.134;5.424;2023-05-20T03:25:29;102636.28;;;12.63;65.71
72086;BME280;64750;52.134;5.424;2023-05-20T03:27:56;102636.38;;;12.60;65.83
72086;BME280;64750;52.134;5.424;2023-05-20T03:30:26;102641.66;;;12.60;66.04
72086;BME280;64750;52.134;5.424;2023-05-20T03:32:54;102640.88;;;12.58;65.90
72086;BME280;64750;52.134;5.424;2023-05-20T03:35:21;102644.50;;;12.55;66.01
72086;BME280;64750;52.134;5.424;2023-05-20T03:37:48;102646.16;;;12.58;65.97
72086;BME280;64750;52.134;5.424;2023-05-20T03:40:16;102647.31;;;12.51;66.22
72086;BME280;64750;52.134;5.424;2023-05-20T03:42:43;102646.44;;;12.50;66.40
72086;BME280;64750;52.134;5.424;2023-05-20T03:45:10;102642.16;;;12.47;66.49
72086;BME280;64750;52.134;5.424;2023-05-20T03:47:36;102640.50;;;12.45;66.59
72086;BME280;64750;52.134;5.424;2023-05-20T03:50:03;102636.00;;;12.47;66.74
72086;BME280;64750;52.134;5.424;2023-05-20T03:52:29;102639.63;;;12.44;66.78
72086;BME280;64750;52.134;5.424;2023-05-20T03:54:56;102630.13;;;12.40;67.06
72086;BME280;64750;52.134;5.424;2023-05-20T03:57:22;102638.09;;;12.39;67.18
72086;BME280;64750;52.134;5.424;2023-05-20T03:59:49;102642.47;;;12.40;67.24
72086;BME280;64750;52.134;5.424;2023-05-20T04:02:16;102639.81;;;12.40;67.37
72086;BME280;64750;52.134;5.424;2023-05-20T04:04:43;102638.94;;;12.39;67.41
72086;BME280;64750;52.134;5.424;2023-05-20T04:07:09;102631.84;;;12.41;67.50
72086;BME280;64750;52.134;5.424;2023-05-20T04:09:37;102638.03;;;12.40;67.59
72086;BME280;64750;52.134;5.424;2023-05-20T04:12:04;102639.91;;;12.37;67.66
72086;BME280;64750;52.134;5.424;2023-05-20T04:14:32;102637.34;;;12.35;67.79
72086;BME280;64750;52.134;5.424;2023-05-20T04:17:02;102643.53;;;12.34;67.88
72086;BME280;64750;52.134;5.424;2023-05-20T04:19:30;102633.94;;;12.33;68.15
72086;BME280;64750;52.134;5.424;2023-05-20T04:21:56;102635.63;;;12.34;68.20
72086;BME280;64750;52.134;5.424;2023-05-20T04:24:24;102642.56;;;12.37;68.35
72086;BME280;64750;52.134;5.424;2023-05-20T04:26:52;102642.63;;;12.35;68.30
72086;BME280;64750;52.134;5.424;2023-05-20T04:29:19;102642.53;;;12.38;68.27
72086;BME280;64750;52.134;5.424;2023-05-20T04:31:46;102629.34;;;12.38;68.33
72086;BME280;64750;52.134;5.424;2023-05-20T04:34:13;102647.72;;;12.40;68.28
72086;BME280;64750;52.134;5.424;2023-05-20T04:36:40;102648.72;;;12.37;68.60
72086;BME280;64750;52.134;5.424;2023-05-20T04:39:06;102645.41;;;12.32;68.61
72086;BME280;64750;52.134;5.424;2023-05-20T04:41:33;102641.03;;;12.31;68.76
72086;BME280;64750;52.134;5.424;2023-05-20T04:44:01;102651.34;;;12.37;68.64
72086;BME280;64750;52.134;5.424;2023-05-20T04:46:29;102657.47;;;12.38;68.71
72086;BME280;64750;52.134;5.424;2023-05-20T04:48:57;102650.38;;;12.40;68.68
72086;BME280;64750;52.134;5.424;2023-05-20T04:51:23;102652.09;;;12.41;68.63
72086;BME280;64750;52.134;5.424;2023-05-20T04:53:50;102656.50;;;12.40;68.82
72086;BME280;64750;52.134;5.424;2023-05-20T04:56:16;102655.56;;;12.41;68.65
72086;BME280;64750;52.134;5.424;2023-05-20T04:58:43;102650.97;;;12.46;68.82
72086;BME280;64750;52.134;5.424;2023-05-20T05:01:09;102648.41;;;12.45;68.86
72086;BME280;64750;52.134;5.424;2023-05-20T05:03:36;102647.44;;;12.47;68.83
72086;BME280;64750;52.134;5.424;2023-05-20T05:06:02;102647.44;;;12.47;68.85
72086;BME280;64750;52.134;5.424;2023-05-20T05:08:29;102644.66;;;12.51;68.85
72086;BME280;64750;52.134;5.424;2023-05-20T05:10:55;102641.97;;;12.52;68.75
72086;BME280;64750;52.134;5.424;2023-05-20T05:13:21;102641.19;;;12.50;68.92
72086;BME280;64750;52.134;5.424;2023-05-20T05:15:59;102639.59;;;12.46;68.89
72086;BME280;64750;52.134;5.424;2023-05-20T05:18:26;102645.72;;;12.46;68.98
72086;BME280;64750;52.134;5.424;2023-05-20T05:21:03;102632.53;;;12.46;69.16
72086;BME280;64750;52.134;5.424;2023-05-20T05:23:30;102638.72;;;12.45;69.48
72086;BME280;64750;52.134;5.424;2023-05-20T05:25:57;102637.00;;;12.44;69.33
72086;BME280;64750;52.134;5.424;2023-05-20T05:28:24;102636.06;;;12.45;69.60
72086;BME280;64750;52.134;5.424;2023-05-20T05:30:53;102636.88;;;12.47;69.45
72086;BME280;64750;52.134;5.424;2023-05-20T05:33:20;102641.25;;;12.49;69.56
72086;BME280;64750;52.134;5.424;2023-05-20T05:35:47;102628.84;;;12.51;69.68
72086;BME280;64750;52.134;5.424;2023-05-20T05:38:14;102633.06;;;12.55;69.63
72086;BME280;64750;52.134;5.424;2023-05-20T05:40:40;102634.53;;;12.62;69.83
72086;BME280;64750;52.134;5.424;2023-05-20T05:43:06;102629.28;;;12.62;69.51
72086;BME280;64750;52.134;5.424;2023-05-20T05:45:33;102624.59;;;12.69;69.47
72086;BME280;64750;52.134;5.424;2023-05-20T05:48:00;102629.03;;;12.68;69.52
72086;BME280;64750;52.134;5.424;2023-05-20T05:50:26;102628.13;;;12.69;69.32
72086;BME280;64750;52.134;5.424;2023-05-20T05:52:53;102625.47;;;12.69;69.66
72086;BME280;64750;52.134;5.424;2023-05-20T05:55:19;102630.63;;;12.72;69.49
72086;BME280;64750;52.134;5.424;2023-05-20T05:57:46;102626.94;;;12.76;69.47
72086;BME280;64750;52.134;5.424;2023-05-20T06:00:12;102628.56;;;12.79;69.50
72086;BME280;64750;52.134;5.424;2023-05-20T06:02:39;102626.81;;;12.79;70.20
72086;BME280;64750;52.134;5.424;2023-05-20T06:05:07;102625.84;;;12.82;69.57
72086;BME280;64750;52.134;5.424;2023-05-20T06:07:33;102621.34;;;12.84;69.25
72086;BME280;64750;52.134;5.424;2023-05-20T06:09:59;102618.66;;;12.86;69.22
72086;BME280;64750;52.134;5.424;2023-05-20T06:12:26;102626.28;;;12.92;69.20
72086;BME280;64750;52.134;5.424;2023-05-20T06:14:52;102623.41;;;12.98;69.54
72086;BME280;64750;52.134;5.424;2023-05-20T06:17:19;102622.22;;;13.05;69.36
72086;BME280;64750;52.134;5.424;2023-05-20T06:19:45;102621.75;;;13.16;69.33
72086;BME280;64750;52.134;5.424;2023-05-20T06:22:12;102626.84;;;13.21;69.11
72086;BME280;64750;52.134;5.424;2023-05-20T06:24:39;102617.88;;;13.25;69.05
72086;BME280;64750;52.134;5.424;2023-05-20T06:27:06;102623.81;;;13.30;68.78
72086;BME280;64750;52.134;5.424;2023-05-20T06:29:32;102615.72;;;13.35;68.82
72086;BME280;64750;52.134;5.424;2023-05-20T06:31:59;102620.75;;;13.41;68.51
72086;BME280;64750;52.134;5.424;2023-05-20T06:34:25;102617.97;;;13.44;67.82
72086;BME280;64750;52.134;5.424;2023-05-20T06:36:52;102613.50;;;13.46;68.02
72086;BME280;64750;52.134;5.424;2023-05-20T06:39:18;102613.28;;;13.51;68.24
72086;BME280;64750;52.134;5.424;2023-05-20T06:41:45;102610.44;;;13.55;68.31
72086;BME280;64750;52.134;5.424;2023-05-20T06:44:11;102612.00;;;13.59;67.60
72086;BME280;64750;52.134;5.424;2023-05-20T06:46:38;102612.72;;;13.63;67.75
72086;BME280;64750;52.134;5.424;2023-05-20T06:49:05;102602.88;;;13.67;66.98
72086;BME280;64750;52.134;5.424;2023-05-20T06:51:32;102603.63;;;13.70;66.65
72086;BME280;64750;52.134;5.424;2023-05-20T06:53:58;102598.19;;;13.73;66.75
72086;BME280;64750;52.134;5.424;2023-05-20T06:56:25;102601.47;;;13.78;66.82
72086;BME280;64750;52.134;5.424;2023-05-20T06:58:51;102601.28;;;13.83;66.62
72086;BME280;64750;52.134;5.424;2023-05-20T07:01:18;102594.84;;;13.89;66.90
72086;BME280;64750;52.134;5.424;2023-05-20T07:03:44;102594.56;;;13.95;67.24
72086;BME280;64750;52.134;5.424;2023-05-20T07:06:11;102589.91;;;14.00;66.69
72086;BME280;64750;52.134;5.424;2023-05-20T07:08:38;102595.03;;;14.03;66.96
72086;BME280;64750;52.134;5.424;2023-05-20T07:11:06;102592.19;;;14.08;66.56
72086;BME280;64750;52.134;5.424;2023-05-20T07:13:32;102584.97;;;14.11;66.52
72086;BME280;64750;52.134;5.424;2023-05-20T07:15:59;102582.09;;;14.16;66.39
72086;BME280;64750;52.134;5.424;2023-05-20T07:18:25;102585.34;;;14.23;66.40
72086;BME280;64750;52.134;5.424;2023-05-20T07:20:52;102585.88;;;14.30;65.06
72086;BME280;64750;52.134;5.424;2023-05-20T07:23:18;102586.44;;;14.36;64.82
72086;BME280;64750;52.134;5.424;2023-05-20T07:25:44;102580.22;;;14.37;65.07
72086;BME280;64750;52.134;5.424;2023-05-20T07:28:11;102582.56;;;14.43;64.56
72086;BME280;64750;52.134;5.424;2023-05-20T07:30:38;102578.69;;;14.51;63.84
72086;BME280;64750;52.134;5.424;2023-05-20T07:33:07;102569.69;;;14.55;63.57
72086;BME280;64750;52.134;5.424;2023-05-20T07:35:33;102571.16;;;14.60;63.83
72086;BME280;64750;52.134;5.424;2023-05-20T07:38:00;102566.44;;;14.67;63.34
72086;BME280;64750;52.134;5.424;2023-05-20T07:40:26;102573.06;;;14.76;63.87
72086;BME280;64750;52.134;5.424;2023-05-20T07:42:53;102568.31;;;14.83;64.12
72086;BME280;64750;52.134;5.424;2023-05-20T07:45:19;102565.06;;;14.95;63.09
72086;BME280;64750;52.134;5.424;2023-05-20T07:47:46;102561.94;;;15.04;61.72
72086;BME280;64750;52.134;5.424;2023-05-20T07:50:12;102557.34;;;15.08;61.27
72086;BME280;64750;52.134;5.424;2023-05-20T07:52:41;102568.72;;;15.10;60.92
72086;BME280;64750;52.134;5.424;2023-05-20T07:55:22;102550.63;;;15.18;59.39
72086;BME280;64750;52.134;5.424;2023-05-20T07:57:48;102550.22;;;15.26;58.90
72086;BME280;64750;52.134;5.424;2023-05-20T08:00:15;102553.28;;;15.34;58.35
72086;BME280;64750;52.134;5.424;2023-05-20T08:02:41;102536.22;;;15.40;58.60
72086;BME280;64750;52.134;5.424;2023-05-20T08:05:08;102534.09;;;15.47;58.76
72086;BME280;64750;52.134;5.424;2023-05-20T08:07:35;102530.19;;;15.54;58.56
72086;BME280;64750;52.134;5.424;2023-05-20T08:10:01;102535.06;;;15.62;58.66
72086;BME280;64750;52.134;5.424;2023-05-20T08:12:27;102527.63;;;15.68;58.26
72086;BME280;64750;52.134;5.424;2023-05-20T08:14:54;102529.09;;;15.74;58.22
72086;BME280;64750;52.134;5.424;2023-05-20T08:17:21;102524.16;;;15.84;57.84
72086;BME280;64750;52.134;5.424;2023-05-20T08:19:47;102525.38;;;15.94;57.32
72086;BME280;64750;52.134;5.424;2023-05-20T08:22:14;102532.88;;;16.02;57.39
72086;BME280;64750;52.134;5.424;2023-05-20T08:24:40;102530.69;;;16.10;56.22
72086;BME280;64750;52.134;5.424;2023-05-20T08:27:07;102534.75;;;16.16;55.15
72086;BME280;64750;52.134;5.424;2023-05-20T08:29:33;102527.31;;;16.22;54.52
72086;BME280;64750;52.134;5.424;2023-05-20T08:32:00;102526.69;;;16.33;54.12
72086;BME280;64750;52.134;5.424;2023-05-20T08:34:26;102524.63;;;16.38;52.56
72086;BME280;64750;52.134;5.424;2023-05-20T08:36:52;102523.25;;;16.47;52.07
72086;BME280;64750;52.134;5.424;2023-05-20T08:39:19;102518.59;;;16.51;51.95
72086;BME280;64750;52.134;5.424;2023-05-20T08:41:46;102517.19;;;16.60;52.10
72086;BME280;64750;52.134;5.424;2023-05-20T08:44:13;102508.78;;;16.67;51.41
72086;BME280;64750;52.134;5.424;2023-05-20T08:46:40;102514.59;;;16.74;50.92
72086;BME280;64750;52.134;5.424;2023-05-20T08:49:07;102504.56;;;16.79;50.87
72086;BME280;64750;52.134;5.424;2023-05-20T08:51:35;102500.19;;;16.78;51.38
72086;BME280;64750;52.134;5.424;2023-05-20T08:54:02;102497.44;;;16.80;52.51
72086;BME280;64750;52.134;5.424;2023-05-20T08:56:29;102495.34;;;16.85;51.20
72086;BME280;64750;52.134;5.424;2023-05-20T08:58:56;102494.81;;;16.94;51.20
72086;BME280;64750;52.134;5.424;2023-05-20T09:01:23;102489.91;;;17.02;51.06
72086;BME280;64750;52.134;5.424;2023-05-20T09:03:51;102490.94;;;17.14;51.78
72086;BME280;64750;52.134;5.424;2023-05-20T09:06:18;102484.38;;;17.20;48.80
72086;BME280;64750;52.134;5.424;2023-05-20T09:08:48;102490.66;;;17.33;50.15
72086;BME280;64750;52.134;5.424;2023-05-20T09:11:16;102483.44;;;17.50;50.53
72086;BME280;64750;52.134;5.424;2023-05-20T09:13:43;102491.88;;;17.57;48.88
72086;BME280;64750;52.134;5.424;2023-05-20T09:16:09;102495.13;;;17.47;48.00
72086;BME280;64750;52.134;5.424;2023-05-20T09:18:39;102490.28;;;17.40;49.10
72086;BME280;64750;52.134;5.424;2023-05-20T09:21:06;102489.91;;;17.31;47.90
72086;BME280;64750;52.134;5.424;2023-05-20T09:23:38;102490.66;;;17.33;48.51
72086;BME280;64750;52.134;5.424;2023-05-20T09:26:04;102491.03;;;17.42;48.05
72086;BME280;64750;52.134;5.424;2023-05-20T09:28:31;102485.59;;;17.43;48.17
72086;BME280;64750;52.134;5.424;2023-05-20T09:30:58;102470.31;;;17.47;47.45
72086;BME280;64750;52.134;5.424;2023-05-20T09:33:29;102474.78;;;17.46;47.56
72086;BME280;64750;52.134;5.424;2023-05-20T09:36:05;102475.25;;;17.53;48.04
72086;BME280;64750;52.134;5.424;2023-05-20T09:38:36;102463.19;;;17.62;47.54
72086;BME280;64750;52.134;5.424;2023-05-20T09:41:08;102463.44;;;17.71;46.90
72086;BME280;64750;52.134;5.424;2023-05-20T09:43:35;102465.78;;;17.76;46.84
72086;BME280;64750;52.134;5.424;2023-05-20T09:46:03;102469.13;;;17.80;47.62
72086;BME280;64750;52.134;5.424;2023-05-20T09:48:30;102463.28;;;17.87;46.54
72086;BME280;64750;52.134;5.424;2023-05-20T09:51:00;102462.06;;;17.93;47.80
72086;BME280;64750;52.134;5.424;2023-05-20T09:53:27;102464.69;;;18.08;48.06
72086;BME280;64750;52.134;5.424;2023-05-20T09:55:54;102451.03;;;18.12;46.99
72086;BME280;64750;52.134;5.424;2023-05-20T09:58:24;102453.81;;;18.11;46.20
72086;BME280;64750;52.134;5.424;2023-05-20T10:00:51;102454.91;;;18.21;46.74
72086;BME280;64750;52.134;5.424;2023-05-20T10:03:21;102455.56;;;18.25;46.75
72086;BME280;64750;52.134;5.424;2023-05-20T10:08:46;102451.31;;;18.35;45.62
72086;BME280;64750;52.134;5.424;2023-05-20T10:11:44;102440.91;;;18.45;45.84
72086;BME280;64750;52.134;5.424;2023-05-20T10:16:50;102428.34;;;18.60;45.29
72086;BME280;64750;52.134;5.424;2023-05-20T10:19:26;102438.16;;;18.59;45.35
72086;BME280;64750;52.134;5.424;2023-05-20T10:21:57;102433.03;;;18.56;46.21
72086;BME280;64750;52.134;5.424;2023-05-20T10:27:01;102434.72;;;18.57;45.38
72086;BME280;64750;52.134;5.424;2023-05-20T10:29:28;102423.53;;;18.52;45.16
72086;BME280;64750;52.134;5.424;2023-05-20T10:31:55;102430.44;;;18.42;45.32
72086;BME280;64750;52.134;5.424;2023-05-20T10:34:22;102423.63;;;18.38;45.67
72086;BME280;64750;52.134;5.424;2023-05-20T10:39:28;102409.78;;;18.32;46.42
72086;BME280;64750;52.134;5.424;2023-05-20T10:42:08;102409.56;;;18.35;46.32
72086;BME280;64750;52.134;5.424;2023-05-20T10:44:46;102397.78;;;18.40;46.48
72086;BME280;64750;52.134;5.424;2023-05-20T10:47:12;102393.94;;;18.57;46.99
72086;BME280;64750;52.134;5.424;2023-05-20T10:49:45;102395.31;;;18.75;47.30
72086;BME280;64750;52.134;5.424;2023-05-20T10:52:13;102408.59;;;18.88;45.48
72086;BME280;64750;52.134;5.424;2023-05-20T10:54:59;102402.31;;;18.89;44.88
72086;BME280;64750;52.134;5.424;2023-05-20T10:57:27;102408.31;;;18.93;44.65
72086;BME280;64750;52.134;5.424;2023-05-20T10:59:54;102395.31;;;19.01;44.57
72086;BME280;64750;52.134;5.424;2023-05-20T11:02:21;102390.84;;;19.01;44.50
72086;BME280;64750;52.134;5.424;2023-05-20T11:04:52;102386.34;;;19.02;44.65
72086;BME280;64750;52.134;5.424;2023-05-20T11:07:28;102384.47;;;18.91;44.96
72086;BME280;64750;52.134;5.424;2023-05-20T11:09:55;102392.09;;;18.83;45.27
72086;BME280;64750;52.134;5.424;2023-05-20T11:12:23;102380.63;;;18.69;45.67
72086;BME280;64750;52.134;5.424;2023-05-20T11:14:50;102381.28;;;18.60;46.11
72086;BME280;64750;52.134;5.424;2023-05-20T11:17:18;102382.34;;;18.58;45.92
72086;BME280;64750;52.134;5.424;2023-05-20T11:19:47;102378.06;;;18.68;46.56
72086;BME280;64750;52.134;5.424;2023-05-20T11:22:14;102369.84;;;18.84;46.75
72086;BME280;64750;52.134;5.424;2023-05-20T11:24:41;102369.22;;;18.93;46.17
72086;BME280;64750;52.134;5.424;2023-05-20T11:27:07;102373.66;;;19.06;46.06
72086;BME280;64750;52.134;5.424;2023-05-20T11:29:34;102367.34;;;19.20;46.71
72086;BME280;64750;52.134;5.424;2023-05-20T11:32:01;102369.72;;;19.35;45.02
72086;BME280;64750;52.134;5.424;2023-05-20T11:34:37;102372.56;;;19.45;44.58
72086;BME280;64750;52.134;5.424;2023-05-20T11:37:08;102368.03;;;19.34;44.25
72086;BME280;64750;52.134;5.424;2023-05-20T11:39:36;102357.06;;;19.26;44.91
72086;BME280;64750;52.134;5.424;2023-05-20T11:42:02;102358.34;;;19.33;44.81
72086;BME280;64750;52.134;5.424;2023-05-20T11:44:29;102355.22;;;19.40;44.48
72086;BME280;64750;52.134;5.424;2023-05-20T11:47:00;102354.72;;;19.34;45.37
72086;BME280;64750;52.134;5.424;2023-05-20T11:49:27;102359.22;;;19.21;45.12
72086;BME280;64750;52.134;5.424;2023-05-20T11:51:53;102349.22;;;19.12;45.92
72086;BME280;64750;52.134;5.424;2023-05-20T11:54:21;102354.06;;;19.31;45.22
72086;BME280;64750;52.134;5.424;2023-05-20T11:56:49;102342.59;;;19.42;44.38
72086;BME280;64750;52.134;5.424;2023-05-20T11:59:15;102340.56;;;19.45;45.10
72086;BME280;64750;52.134;5.424;2023-05-20T12:01:42;102340.88;;;19.54;44.85
72086;BME280;64750;52.134;5.424;2023-05-20T12:04:09;102336.25;;;19.56;44.43
72086;BME280;64750;52.134;5.424;2023-05-20T12:06:36;102326.09;;;19.61;43.87
72086;BME280;64750;52.134;5.424;2023-05-20T12:09:03;102321.25;;;19.66;44.42
72086;BME280;64750;52.134;5.424;2023-05-20T12:11:33;102322.13;;;19.78;45.14
72086;BME280;64750;52.134;5.424;2023-05-20T12:14:04;102320.09;;;19.81;44.03
72086;BME280;64750;52.134;5.424;2023-05-20T12:16:34;102320.91;;;19.71;44.99
72086;BME280;64750;52.134;5.424;2023-05-20T12:19:01;102320.13;;;19.57;44.48
72086;BME280;64750;52.134;5.424;2023-05-20T12:21:28;102327.03;;;19.48;44.41
72086;BME280;64750;52.134;5.424;2023-05-20T12:23:54;102319.34;;;19.44;44.62
72086;BME280;64750;52.134;5.424;2023-05-20T12:26:25;102316.69;;;19.44;44.73
72086;BME280;64750;52.134;5.424;2023-05-20T12:28:53;102315.69;;;19.33;44.13
72086;BME280;64750;52.134;5.424;2023-05-20T12:31:19;102322.22;;;19.29;45.14
72086;BME280;64750;52.134;5.424;2023-05-20T12:33:46;102319.31;;;19.32;44.92
72086;BME280;64750;52.134;5.424;2023-05-20T12:36:13;102323.72;;;19.45;44.91
72086;BME280;64750;52.134;5.424;2023-05-20T12:38:40;102315.91;;;19.66;44.65
72086;BME280;64750;52.134;5.424;2023-05-20T12:41:07;102312.91;;;19.71;45.08
72086;BME280;64750;52.134;5.424;2023-05-20T12:43:34;102322.56;;;19.60;43.52
72086;BME280;64750;52.134;5.424;2023-05-20T12:46:03;102329.69;;;19.48;44.78
72086;BME280;64750;52.134;5.424;2023-05-20T12:48:30;102321.06;;;19.45;45.08
72086;BME280;64750;52.134;5.424;2023-05-20T12:50:56;102314.78;;;19.57;45.37
72086;BME280;64750;52.134;5.424;2023-05-20T12:53:23;102309.38;;;19.59;45.55
72086;BME280;64750;52.134;5.424;2023-05-20T12:55:49;102308.50;;;19.58;45.56
72086;BME280;64750;52.134;5.424;2023-05-20T12:58:15;102300.38;;;19.60;45.16
72086;BME280;64750;52.134;5.424;2023-05-20T13:00:42;102294.19;;;19.59;45.01
72086;BME280;64750;52.134;5.424;2023-05-20T13:03:09;102301.00;;;19.63;45.53